Time;durP1;ratioP1;P1;durP2;ratioP2;P2;SDS_P1;SDS_P2;PMS_P1;PMS_P2;Temp;Humidity;BMP_temperature;BMP_pressure;BME280_temperature;BME280_humidity;BME280_pressure;Samples;Min_cycle;Max_cycle;Signal;HPM_P1;HPM_P2
2022/06/01 00:00:24;;;;;;;4.18;2.53;;;;;;;;;;4984130;28;20020;-70
2022/06/01 00:02:50;;;;;;;4.03;2.50;;;;;;;;;;4983015;28;20034;-70
2022/06/01 00:05:16;;;;;;;2.38;2.13;;;;;;;;;;4988342;28;20052;-71
2022/06/01 00:07:42;;;;;;;3.25;2.15;;;14.60;99.90;;;;;;4985751;28;20499;-70
2022/06/01 00:10:08;;;;;;;3.13;1.92;;;;;;;;;;4983306;28;20050;-70
2022/06/01 00:12:35;;;;;;;5.28;2.35;;;;;;;;;;4982909;28;20033;-70
2022/06/01 00:15:03;;;;;;;5.65;2.67;;;14.30;99.70;;;;;;4988047;28;20034;-70
2022/06/01 00:17:29;;;;;;;4.45;2.63;;;;;;;;;;4983350;28;20129;-70
2022/06/01 00:19:55;;;;;;;4.57;2.65;;;;;;;;;;4986298;28;20034;-70
2022/06/01 00:22:21;;;;;;;3.95;1.85;;;;;;;;;;4985655;28;20065;-70
2022/06/01 00:24:47;;;;;;;2.78;2.22;;;14.30;99.90;;;;;;4984196;28;20027;-70
2022/06/01 00:27:14;;;;;;;2.92;2.10;;;;;;;;;;4986167;28;20492;-70
2022/06/01 00:29:40;;;;;;;3.17;1.87;;;;;;;;;;4985824;28;20114;-71
2022/06/01 00:32:08;;;;;;;2.53;2.30;;;14.10;99.60;;;;;;4985085;28;20035;-70
2022/06/01 00:34:34;;;;;;;4.95;2.15;;;;;;;;;;4986985;28;20173;-70
2022/06/01 00:37:00;;;;;;;2.05;1.85;;;;;;;;;;4985314;28;20084;-71
2022/06/01 00:39:26;;;;;;;4.30;2.72;;;;;;;;;;4983547;28;20034;-71
2022/06/01 00:41:52;;;;;;;3.05;2.13;;;;;;;;;;4987423;28;20050;-71
2022/06/01 00:44:18;;;;;;;3.97;2.65;;;14.00;99.90;;;;;;4990167;28;20026;-71
2022/06/01 00:46:44;;;;;;;3.92;2.45;;;;;;;;;;4983528;28;20022;-71
2022/06/01 00:49:18;;;;;;;2.97;1.77;;;;;;;;;;4989077;28;20110;-70
2022/06/01 00:51:45;;;;;;;3.50;2.47;;;13.90;99.40;;;;;;4988488;28;20046;-70
2022/06/01 00:54:12;;;;;;;1.75;1.45;;;;;;;;;;4987328;28;20057;-70
2022/06/01 00:56:40;;;;;;;3.90;2.08;;;;;;;;;;4989635;28;20030;-71
2022/06/01 00:59:09;;;;;;;2.05;1.45;;;;;;;;;;4987294;28;20033;-70
2022/06/01 01:01:35;;;;;;;2.97;1.90;;;;;;;;;;4989867;28;20034;-70
2022/06/01 01:04:04;;;;;;;5.10;2.42;;;;;;;;;;4987241;28;20037;-71
2022/06/01 01:06:34;;;;;;;3.28;2.92;;;;;;;;;;4987232;28;20042;-70
2022/06/01 01:09:00;;;;;;;6.82;2.80;;;;;;;;;;4986780;28;20081;-70
2022/06/01 01:11:29;;;;;;;3.38;2.88;;;;;;;;;;4991271;28;20450;-70
2022/06/01 01:13:56;;;;;;;2.28;1.98;;;;;;;;;;4988151;28;20109;-71
2022/06/01 01:16:22;;;;;;;3.10;2.40;;;;;;;;;;4987668;28;20042;-70
2022/06/01 01:18:51;;;;;;;2.67;2.15;;;;;;;;;;4987799;28;20019;-70
2022/06/01 01:21:32;;;;;;;3.17;2.15;;;;;;;;;;4986282;28;20526;-70
2022/06/01 01:24:01;;;;;;;7.57;2.22;;;;;;;;;;4986819;28;20022;-70
2022/06/01 01:26:28;;;;;;;6.55;2.95;;;;;;;;;;4986858;28;20055;-71
2022/06/01 01:28:54;;;;;;;2.83;1.85;;;13.60;99.90;;;;;;4990626;28;20038;-70
2022/06/01 01:31:24;;;;;;;3.05;2.17;;;;;;;;;;4988265;28;20050;-71
2022/06/01 01:33:51;;;;;;;4.00;2.13;;;;;;;;;;4984186;28;20019;-70
2022/06/01 01:36:20;;;;;;;4.75;2.40;;;;;;;;;;4986515;28;20408;-71
2022/06/01 01:38:49;;;;;;;2.95;1.83;;;;;;;;;;4987772;28;20039;-70
2022/06/01 01:41:15;;;;;;;3.90;2.35;;;;;;;;;;4989327;28;20026;-70
2022/06/01 01:43:45;;;;;;;3.72;2.13;;;;;;;;;;4985472;28;20031;-70
2022/06/01 01:46:11;;;;;;;3.10;2.25;;;;;;;;;;4988212;28;20488;-70
2022/06/01 01:48:37;;;;;;;3.00;2.13;;;13.70;99.90;;;;;;4986111;28;20101;-70
2022/06/01 01:51:05;;;;;;;3.35;2.40;;;;;;;;;;4985947;28;20070;-70
2022/06/01 01:53:32;;;;;;;;;;;;;;;;;;4989204;28;20030;-70
2022/06/01 01:55:58;;;;;;;;;;;;;;;;;;4988218;28;19917;-71
2022/06/01 01:58:53;;;;;;;3.47;2.17;;;;;;;;;;4984893;28;19910;-70
2022/06/01 02:01:30;;;;;;;5.55;2.22;;;13.80;99.30;;;;;;4991535;28;20407;-71
2022/06/01 02:06:03;;;;;;;2.88;1.90;;;;;;;;;;4986603;28;20045;-71
2022/06/01 02:06:52;;;;;;;7.05;2.45;;;;;;;;;;4985858;28;20049;-70
2022/06/01 02:09:18;;;;;;;2.15;1.95;;;;;;;;;;4985899;28;20538;-71
2022/06/01 02:14:45;;;;;;;4.05;2.25;;;;;;;;;;4989128;28;20118;-70
2022/06/01 02:17:11;;;;;;;4.50;2.40;;;;;;;;;;4989194;28;20040;-70
2022/06/01 02:19:40;;;;;;;5.47;2.90;;;;;;;;;;4985388;28;20026;-70
2022/06/01 02:22:08;;;;;;;2.97;1.85;;;13.80;98.90;;;;;;4987256;28;20101;-71
2022/06/01 02:24:35;;;;;;;3.80;2.53;;;;;;;;;;4986222;28;20026;-70
2022/06/01 02:27:01;;;;;;;3.13;2.17;;;;;;;;;;4985557;28;20037;-70
2022/06/01 02:29:31;;;;;;;6.43;2.70;;;;;;;;;;4990010;28;20037;-70
2022/06/01 02:31:58;;;;;;;5.07;2.47;;;13.80;99.90;;;;;;4987004;28;20519;-71
2022/06/01 02:34:25;;;;;;;3.72;2.15;;;13.90;99.90;;;;;;4985855;28;20029;-70
2022/06/01 02:36:52;;;;;;;3.10;2.10;;;;;;;;;;4985265;28;20403;-71
2022/06/01 02:39:18;;;;;;;7.95;2.30;;;;;;;;;;4985567;28;20027;-71
2022/06/01 02:44:28;;;;;;;8.07;2.75;;;;;;;;;;4989144;28;20117;-71
2022/06/01 02:46:54;;;;;;;4.22;2.70;;;13.70;99.90;;;;;;4985659;28;20098;-71
2022/06/01 02:49:20;;;;;;;4.07;2.63;;;;;;;;;;4986472;28;20023;-71
2022/06/01 02:51:49;;;;;;;3.22;2.40;;;;;;;;;;4986126;28;20153;-71
2022/06/01 02:54:15;;;;;;;3.65;2.65;;;;;;;;;;4984662;28;20027;-71
2022/06/01 02:56:41;;;;;;;7.03;2.95;;;;;;;;;;4984865;28;20117;-70
2022/06/01 02:59:07;;;;;;;5.15;2.53;;;;;;;;;;4987456;28;20077;-70
2022/06/01 03:01:35;;;;;;;3.95;2.20;;;;;;;;;;4988046;28;20085;-72
2022/06/01 03:04:01;;;;;;;3.30;2.22;;;;;;;;;;4986178;28;20041;-70
2022/06/01 03:06:27;;;;;;;3.88;1.83;;;;;;;;;;4984653;28;20030;-70
2022/06/01 03:08:53;;;;;;;5.20;2.53;;;;;;;;;;4985012;28;20054;-71
2022/06/01 03:11:19;;;;;;;5.63;3.22;;;;;;;;;;4988466;28;20412;-71
2022/06/01 03:13:45;;;;;;;11.02;2.90;;;;;;;;;;4984980;28;20029;-70
2022/06/01 03:16:11;;;;;;;3.78;2.72;;;;;;;;;;4986448;28;20120;-70
2022/06/01 03:18:37;;;;;;;3.42;2.28;;;;;;;;;;4984550;28;20626;-70
2022/06/01 03:21:03;;;;;;;3.78;2.38;;;13.90;99.90;;;;;;4984563;28;20041;-71
2022/06/01 03:23:29;;;;;;;3.45;2.88;;;;;;;;;;4988258;28;20026;-70
2022/06/01 03:25:55;;;;;;;2.47;1.65;;;;;;;;;;4985692;28;20506;-70
2022/06/01 03:28:22;;;;;;;3.40;1.98;;;;;;;;;;4985271;28;20108;-70
2022/06/01 03:30:48;;;;;;;3.30;2.55;;;13.70;99.20;;;;;;4979981;28;20035;-70
2022/06/01 03:33:14;;;;;;;3.55;2.75;;;13.80;99.10;;;;;;4980461;28;20046;-71
2022/06/01 03:35:40;;;;;;;2.80;1.70;;;13.80;98.90;;;;;;4986617;28;20026;-71
2022/06/01 03:38:06;;;;;;;2.20;1.80;;;13.70;99.20;;;;;;4986930;28;20034;-71
2022/06/01 03:40:33;;;;;;;8.57;2.50;;;;;;;;;;4984578;28;20019;-71
2022/06/01 03:43:00;;;;;;;6.37;2.80;;;;;;;;;;4985721;28;20104;-70
2022/06/01 03:48:10;;;;;;;3.10;2.17;;;;;;;;;;4983941;28;20102;-70
2022/06/01 03:50:36;;;;;;;3.92;2.60;;;13.90;99.90;;;;;;4986237;28;20034;-71
2022/06/01 03:53:03;;;;;;;7.90;2.50;;;;;;;;;;4984392;28;20514;-70
2022/06/01 03:55:29;;;;;;;5.35;2.20;;;;;;;;;;4986327;28;20018;-70
2022/06/01 03:57:55;;;;;;;4.72;2.50;;;13.90;99.90;;;;;;4985504;28;20030;-70
2022/06/01 04:00:23;;;;;;;3.80;2.88;;;13.70;99.40;;;;;;4984067;28;20482;-70
2022/06/01 04:02:50;;;;;;;3.97;2.35;;;;;;;;;;4984795;28;20802;-70
2022/06/01 04:05:16;;;;;;;3.80;2.55;;;;;;;;;;4988203;28;20049;-70
2022/06/01 04:07:42;;;;;;;2.90;2.13;;;;;;;;;;4983756;28;20023;-70
2022/06/01 04:10:09;;;;;;;4.63;2.15;;;;;;;;;;4985440;28;20034;-71
2022/06/01 04:12:35;;;;;;;4.80;2.90;;;;;;;;;;4983848;28;20109;-70
2022/06/01 04:15:01;;;;;;;5.10;2.33;;;;;;;;;;4983653;28;20516;-71
2022/06/01 04:17:27;;;;;;;5.45;2.55;;;;;;;;;;4987519;28;20022;-71
2022/06/01 04:19:53;;;;;;;4.80;3.38;;;13.70;99.90;;;;;;4984939;28;20038;-70
2022/06/01 04:22:20;;;;;;;5.13;3.70;;;;;;;;;;4984871;28;20022;-71
2022/06/01 04:24:46;;;;;;;5.40;3.45;;;;;;;;;;4984142;28;20033;-70
2022/06/01 04:27:12;;;;;;;4.85;2.67;;;;;;;;;;4983938;28;20031;-70
2022/06/01 04:29:39;;;;;;;4.75;2.75;;;;;;;;;;4984103;28;20027;-70
2022/06/01 04:32:10;;;;;;;5.20;2.88;;;13.90;99.10;;;;;;4985962;28;20046;-70
2022/06/01 04:34:36;;;;;;;4.72;2.25;;;;;;;;;;4986926;28;20037;-71
2022/06/01 04:37:02;;;;;;;3.42;2.35;;;13.70;99.90;;;;;;4985229;28;20030;-71
2022/06/01 04:39:28;;;;;;;3.15;2.80;;;;;;;;;;4983860;28;20105;-70
2022/06/01 04:41:54;;;;;;;3.72;2.38;;;;;;;;;;4983650;28;20048;-70
2022/06/01 04:44:20;;;;;;;5.15;3.20;;;;;;;;;;4983807;28;20510;-69
2022/06/01 04:46:46;;;;;;;2.97;2.33;;;;;;;;;;4988413;28;20058;-71
2022/06/01 04:49:12;;;;;;;3.35;2.33;;;;;;;;;;4984781;28;20034;-70
2022/06/01 04:51:39;;;;;;;6.45;2.42;;;;;;;;;;4983693;28;20518;-71
2022/06/01 04:54:07;;;;;;;6.85;2.72;;;14.20;99.90;;;;;;4983481;28;20105;-69
2022/06/01 04:56:33;;;;;;;4.82;2.80;;;;;;;;;;4983837;28;20035;-69
2022/06/01 04:58:59;;;;;;;4.18;2.55;;;;;;;;;;4987615;28;20105;-71
2022/06/01 05:01:25;;;;;;;8.38;2.08;;;;;;;;;;4983440;28;20109;-70
2022/06/01 05:03:51;;;;;;;3.50;1.90;;;;;;;;;;4984900;28;20029;-72
2022/06/01 05:06:18;;;;;;;2.45;2.20;;;;;;;;;;4983069;28;20034;-69
2022/06/01 05:08:43;;;;;;;5.07;2.67;;;;;;;;;;4983222;28;20106;-70
2022/06/01 05:11:09;;;;;;;3.60;2.35;;;;;;;;;;4982356;28;20126;-70
2022/06/01 05:13:35;;;;;;;5.03;2.80;;;;;;;;;;4984883;28;20031;-70
2022/06/01 05:16:02;;;;;;;6.60;2.78;;;15.00;97.50;;;;;;4983437;28;20098;-70
2022/06/01 05:18:28;;;;;;;2.75;2.38;;;;;;;;;;4981455;28;20050;-70
2022/06/01 05:20:54;;;;;;;4.13;3.00;;;;;;;;;;4981339;28;20074;-70
2022/06/01 05:23:21;;;;;;;4.32;2.97;;;;;;;;;;4984031;28;20030;-71
2022/06/01 05:25:48;;;;;;;3.83;3.08;;;;;;;;;;4986369;28;20023;-70
2022/06/01 05:28:17;;;;;;;3.85;2.42;;;;;;;;;;4985557;28;20133;-71
2022/06/01 05:30:43;;;;;;;3.22;2.53;;;15.30;99.90;;;;;;4987819;28;20046;-70
2022/06/01 05:33:09;;;;;;;4.13;2.80;;;;;;;;;;4984586;28;20030;-70
2022/06/01 05:35:35;;;;;;;6.63;4.25;;;;;;;;;;4982160;28;20034;-70
2022/06/01 05:38:01;;;;;;;5.80;2.72;;;;;;;;;;4988090;28;20039;-70
2022/06/01 05:40:30;;;;;;;5.30;2.78;;;;;;;;;;4984455;28;20014;-70
2022/06/01 05:42:56;;;;;;;4.80;3.00;;;;;;;;;;4984816;28;20068;-70
2022/06/01 05:45:22;;;;;;;4.85;2.60;;;;;;;;;;4983188;28;20474;-70
2022/06/01 05:47:48;;;;;;;3.58;2.40;;;;;;;;;;4978611;28;20113;-70
2022/06/01 05:50:14;;;;;;;2.75;2.50;;;;;;;;;;4986607;28;20027;-71
2022/06/01 05:52:40;;;;;;;2.38;2.05;;;;;;;;;;4988295;28;20035;-71
2022/06/01 05:55:08;;;;;;;3.63;2.15;;;;;;;;;;4989436;28;20022;-70
2022/06/01 05:57:34;;;;;;;3.50;2.50;;;;;;;;;;4982412;28;20042;-71
2022/06/01 06:00:00;;;;;;;4.13;2.80;;;;;;;;;;4985697;28;20054;-73
2022/06/01 06:02:27;;;;;;;4.33;2.30;;;;;;;;;;4989185;28;20056;-70
2022/06/01 06:04:53;;;;;;;4.20;2.90;;;;;;;;;;4985515;28;20027;-71
2022/06/01 06:07:19;;;;;;;7.88;3.60;;;;;;;;;;4984712;28;20037;-70
2022/06/01 06:09:44;;;;;;;4.13;3.05;;;;;;;;;;4984669;28;20407;-70
2022/06/01 06:12:10;;;;;;;4.63;3.08;;;;;;;;;;4983754;28;20042;-70
2022/06/01 06:14:36;;;;;;;4.05;2.75;;;;;;;;;;4985753;28;20105;-70
2022/06/01 06:17:02;;;;;;;4.00;2.60;;;;;;;;;;4986246;28;20118;-70
2022/06/01 06:19:28;;;;;;;4.32;2.35;;;;;;;;;;4987620;28;20022;-70
2022/06/01 06:21:54;;;;;;;2.10;1.60;;;18.50;99.90;;;;;;4986330;28;20034;-71
2022/06/01 06:24:21;;;;;;;2.42;2.10;;;;;;;;;;4985098;28;20050;-70
2022/06/01 06:26:47;;;;;;;4.00;2.30;;;;;;;;;;4984852;28;20121;-70
2022/06/01 06:29:14;;;;;;;4.00;2.53;;;;;;;;;;4988639;28;20053;-71
2022/06/01 06:31:40;;;;;;;3.00;2.70;;;18.80;99.90;;;;;;4984831;28;20096;-70
2022/06/01 06:34:06;;;;;;;2.97;2.13;;;;;;;;;;4984920;28;20038;-70
2022/06/01 06:36:32;;;;;;;5.47;2.78;;;;;;;;;;4988999;28;20077;-69
2022/06/01 06:38:58;;;;;;;5.35;2.50;;;;;;;;;;4985091;28;20492;-68
2022/06/01 06:41:24;;;;;;;4.68;3.25;;;20.40;99.40;;;;;;4984591;28;20093;-67
2022/06/01 06:43:51;;;;;;;5.90;3.47;;;;;;;;;;4988766;28;20467;-69
2022/06/01 06:46:19;;;;;;;3.75;1.67;;;;;;;;;;4986652;28;20032;-70
2022/06/01 06:48:45;;;;;;;;;;;20.30;86.10;;;;;;4984054;28;20030;-68
2022/06/01 06:51:12;;;;;;;4.20;1.98;;;;;;;;;;4983195;28;19925;-69
2022/06/01 06:53:40;;;;;;;2.60;2.03;;;;;;;;;;4985227;28;20071;-69
2022/06/01 06:56:06;;;;;;;2.33;2.10;;;;;;;;;;4984183;28;20107;-68
2022/06/01 06:58:32;;;;;;;7.50;3.50;;;19.20;98.70;;;;;;4986274;28;20029;-68
2022/06/01 07:00:58;;;;;;;6.70;2.55;;;;;;;;;;4988692;28;20142;-68
2022/06/01 07:03:24;;;;;;;3.38;2.35;;;18.20;99.90;;;;;;4983753;28;20117;-68
2022/06/01 07:06:09;;;;;;;2.63;2.08;;;17.70;99.90;;;;;;4977319;28;20126;-65
2022/06/01 07:08:35;;;;;;;3.30;2.15;;;;;;;;;;4980607;28;20052;-69
2022/06/01 07:11:01;;;;;;;3.40;2.13;;;;;;;;;;4985464;28;20042;-67
2022/06/01 07:13:27;;;;;;;6.43;2.47;;;;;;;;;;4984404;28;20026;-68
2022/06/01 07:16:03;;;;;;;2.67;2.17;;;17.50;94.70;;;;;;4986280;28;20034;-68
2022/06/01 07:18:29;;;;;;;3.63;2.33;;;;;;;;;;4983173;28;20105;-68
2022/06/01 07:20:54;;;;;;;4.13;2.58;;;17.50;99.90;;;;;;4983690;28;20130;-67
2022/06/01 07:23:20;;;;;;;3.92;2.47;;;;;;;;;;4986448;28;20030;-67
2022/06/01 07:25:46;;;;;;;3.97;2.55;;;18.20;99.90;;;;;;4977744;28;20076;-69
2022/06/01 07:28:12;;;;;;;3.25;2.13;;;;;;;;;;4980253;28;20034;-69
2022/06/01 07:30:39;;;;;;;6.00;1.75;;;;;;;;;;4983040;28;20164;-65
2022/06/01 07:33:05;;;;;;;2.70;1.75;;;;;;;;;;4980295;28;20103;-72
2022/06/01 07:35:31;;;;;;;4.32;2.53;;;;;;;;;;4985490;28;20030;-73
2022/06/01 07:43:28;;;;;;;3.70;2.35;;;18.90;98.50;;;;;;4986530;28;20061;-71
2022/06/01 07:45:54;;;;;;;5.88;2.90;;;;;;;;;;4984347;28;20046;-71
2022/06/01 07:48:20;;;;;;;3.47;2.25;;;;;;;;;;4984205;28;20121;-71
2022/06/01 07:50:48;;;;;;;6.57;2.80;;;18.50;91.80;;;;;;4983703;28;20420;-72
2022/06/01 07:53:14;;;;;;;3.28;2.55;;;18.40;96.70;;;;;;4986689;28;20517;-71
2022/06/01 07:55:41;;;;;;;5.97;3.05;;;;;;;;;;4983370;28;20038;-73
2022/06/01 07:58:07;;;;;;;2.42;2.20;;;;;;;;;;4983946;28;20244;-70
2022/06/01 08:00:33;;;;;;;4.10;2.53;;;;;;;;;;4983224;28;20720;-70
2022/06/01 08:02:59;;;;;;;4.05;3.00;;;;;;;;;;4982713;28;20018;-71
2022/06/01 08:05:26;;;;;;;3.67;3.03;;;18.30;99.90;;;;;;4981819;28;20041;-72
2022/06/01 08:07:52;;;;;;;6.80;3.22;;;;;;;;;;4987179;28;20077;-73
2022/06/01 08:10:19;;;;;;;4.13;2.30;;;;;;;;;;4984861;28;20069;-71
2022/06/01 08:15:30;;;;;;;2.92;2.10;;;;;;;;;;4983186;28;20057;-71
2022/06/01 08:17:57;;;;;;;2.58;1.90;;;;;;;;;;4982841;28;20026;-70
2022/06/01 08:20:23;;;;;;;4.00;2.55;;;;;;;;;;4987259;28;20023;-71
2022/06/01 08:22:49;;;;;;;6.30;3.05;;;;;;;;;;4985214;28;20109;-73
2022/06/01 08:25:16;;;;;;;5.93;2.13;;;;;;;;;;4984257;28;20029;-71
2022/06/01 08:27:42;;;;;;;2.88;2.38;;;;;;;;;;4982711;28;20034;-70
2022/06/01 08:30:09;;;;;;;5.60;2.85;;;;;;;;;;4982353;28;20596;-71
2022/06/01 08:32:35;;;;;;;4.40;3.00;;;;;;;;;;4984832;28;20488;-74
2022/06/01 08:35:01;;;;;;;4.65;2.35;;;;;;;;;;4986770;28;20029;-73
2022/06/01 08:37:27;;;;;;;6.30;3.05;;;;;;;;;;4987638;28;20507;-70
2022/06/01 08:39:53;;;;;;;3.22;2.60;;;;;;;;;;4983493;28;20025;-71
2022/06/01 08:42:23;;;;;;;3.70;2.58;;;;;;;;;;4981953;28;20050;-71
2022/06/01 08:44:49;;;;;;;3.47;2.10;;;;;;;;;;4979035;28;20033;-71
2022/06/01 08:47:29;;;;;;;2.87;2.40;;;;;;;;;;4983401;28;20069;-71
2022/06/01 08:50:00;;;;;;;7.03;3.17;;;;;;;;;;4985708;28;20030;-69
2022/06/01 08:52:26;;;;;;;4.25;3.40;;;;;;;;;;4983702;28;20034;-70
2022/06/01 08:54:52;;;;;;;5.38;3.97;;;;;;;;;;4985253;28;20106;-71
2022/06/01 08:57:39;;;;;;;4.85;3.25;;;;;;;;;;4980796;28;20424;-72
2022/06/01 09:00:05;;;;;;;4.35;2.78;;;;;;;;;;4981322;28;20412;-69
2022/06/01 09:02:44;;;;;;;6.40;3.78;;;;;;;;;;4983322;28;20026;-69
2022/06/01 09:05:30;;;;;;;3.70;2.33;;;17.30;97.70;;;;;;4984841;28;20459;-68
2022/06/01 09:08:33;;;;;;;8.45;1.80;;;17.30;98.10;;;;;;4988195;28;20034;-69
2022/06/01 09:11:05;;;;;;;4.10;2.50;;;;;;;;;;5004418;28;20507;-71
2022/06/01 09:13:49;;;;;;;5.07;2.40;;;;;;;;;;5004742;28;20037;-69
2022/06/01 09:16:17;;;;;;;3.42;2.25;;;;;;;;;;5003687;28;20067;-68
2022/06/01 09:18:49;;;;;;;4.20;2.58;;;;;;;;;;4998579;28;20045;-69
2022/06/01 09:24:19;;;;;;;7.25;3.05;;;;;;;;;;5003006;28;20415;-72
2022/06/01 09:26:53;;;;;;;3.50;2.33;;;;;;;;;;5002570;28;20030;-74
2022/06/01 09:29:21;;;;;;;5.80;2.97;;;17.10;99.90;;;;;;5001897;28;20030;-73
2022/06/01 09:31:48;;;;;;;3.47;3.15;;;;;;;;;;5004761;28;20042;-73
2022/06/01 09:34:16;;;;;;;4.68;2.10;;;;;;;;;;5003064;28;20125;-73
2022/06/01 09:37:03;;;;;;;3.17;2.17;;;17.30;99.10;;;;;;4999365;28;20026;-73
2022/06/01 09:39:29;;;;;;;6.03;2.45;;;;;;;;;;5001513;28;20026;-72
2022/06/01 09:42:10;;;;;;;3.88;2.80;;;;;;;;;;4982548;28;20046;-72
2022/06/01 09:44:40;;;;;;;5.63;3.95;;;;;;;;;;4993258;28;20065;-71
2022/06/01 09:47:06;;;;;;;3.35;2.70;;;;;;;;;;4997609;28;20077;-70
2022/06/01 09:49:42;;;;;;;3.83;2.85;;;17.70;99.50;;;;;;4987578;28;20038;-74
2022/06/01 09:52:12;;;;;;;10.13;3.40;;;;;;;;;;4989948;28;20034;-73
2022/06/01 09:54:43;;;;;;;5.93;3.15;;;17.70;98.80;;;;;;4985181;28;20026;-71
2022/06/01 09:57:23;;;;;;;5.03;3.47;;;17.70;99.20;;;;;;4985406;28;20038;-71
2022/06/01 10:08:11;;;;;;;3.50;2.65;;;;;;;;;;4987381;28;20466;-72
2022/06/01 10:10:37;;;;;;;3.60;2.75;;;;;;;;;;4988009;28;20034;-71
2022/06/01 10:13:06;;;;;;;5.13;3.60;;;;;;;;;;4986197;28;20029;-73
2022/06/01 10:15:40;;;;;;;6.50;3.28;;;;;;;;;;4985447;28;20038;-71
2022/06/01 10:18:32;;;;;;;3.80;2.65;;;;;;;;;;4984565;28;20396;-72
2022/06/01 10:21:05;;;;;;;3.10;2.80;;;;;;;;;;4985925;28;20038;-72
2022/06/01 10:23:37;;;;;;;3.75;2.75;;;;;;;;;;4982362;28;20034;-72
2022/06/01 10:26:10;;;;;;;6.30;2.58;;;17.50;99.20;;;;;;4985316;28;20027;-73
2022/06/01 10:28:41;;;;;;;6.07;3.08;;;;;;;;;;4974955;28;20411;-71
2022/06/01 10:31:23;;;;;;;6.10;2.63;;;17.80;99.60;;;;;;4985173;28;20042;-72
2022/06/01 10:33:58;;;;;;;4.20;2.28;;;17.90;99.90;;;;;;4986973;28;20065;-73
2022/06/01 10:37:02;;;;;;;4.85;2.88;;;18.20;99.90;;;;;;4983222;28;20034;-72
2022/06/01 10:39:47;;;;;;;4.22;2.20;;;;;;;;;;4984365;28;20031;-74
2022/06/01 10:42:22;;;;;;;3.83;2.38;;;;;;;;;;4984565;28;20034;-71
2022/06/01 10:44:58;;;;;;;9.65;3.65;;;;;;;;;;4984567;28;20512;-72
2022/06/01 10:47:31;;;;;;;8.00;3.20;;;19.00;99.90;;;;;;4984748;28;20702;-72
2022/06/01 10:50:01;;;;;;;4.15;2.53;;;;;;;;;;4984773;28;20045;-72
2022/06/01 10:52:42;;;;;;;3.63;2.05;;;;;;;;;;4986185;28;20822;-72
2022/06/01 10:55:43;;;;;;;2.45;1.52;;;;;;;;;;4984850;28;20031;-72
2022/06/01 10:58:11;;;;;;;2.08;1.30;;;;;;;;;;5005359;28;20037;-72
2022/06/01 11:00:45;;;;;;;1.58;0.88;;;19.90;93.20;;;;;;5005624;28;20049;-73
2022/06/01 11:03:12;;;;;;;1.33;1.00;;;;;;;;;;5002495;28;20041;-72
2022/06/01 11:05:49;;;;;;;1.25;0.63;;;20.40;93.20;;;;;;5006596;28;20136;-72
2022/06/01 11:08:30;;;;;;;0.60;0.57;;;;;;;;;;5005647;28;20503;-72
2022/06/01 11:11:04;;;;;;;2.05;0.73;;;;;;;;;;5006888;28;20912;-72
2022/06/01 11:13:31;;;;;;;1.15;0.70;;;;;;;;;;5004363;28;20045;-72
2022/06/01 11:16:09;;;;;;;1.10;0.75;;;;;;;;;;5005699;28;20026;-72
2022/06/01 11:18:56;;;;;;;2.05;0.85;;;21.20;90.10;;;;;;5006327;28;20037;-72
2022/06/01 11:21:22;;;;;;;1.55;0.70;;;;;;;;;;5007071;28;20511;-73
2022/06/01 11:24:25;;;;;;;0.88;0.70;;;21.60;91.00;;;;;;5003188;28;20057;-72
2022/06/01 11:26:59;;;;;;;1.52;0.90;;;;;;;;;;5005489;28;20538;-72
2022/06/01 11:29:46;;;;;;;1.08;0.55;;;21.40;90.50;;;;;;5003515;28;20500;-72
2022/06/01 11:32:17;;;;;;;;;;;21.60;89.50;;;;;;4996678;28;20054;-73
2022/06/01 11:34:48;;;;;;;1.77;1.05;;;21.90;87.50;;;;;;4983736;28;19937;-71
2022/06/01 11:37:20;;;;;;;1.80;1.20;;;22.00;87.60;;;;;;4980371;28;20384;-72
2022/06/01 11:39:54;;;;;;;1.17;0.80;;;22.30;88.20;;;;;;4983125;28;20033;-72
2022/06/01 11:42:28;;;;;;;4.00;0.65;;;22.30;86.00;;;;;;4983330;28;20061;-71
2022/06/01 11:45:00;;;;;;;0.60;0.47;;;;;;;;;;4983172;28;20609;-73
2022/06/01 11:47:27;;;;;;;1.30;0.90;;;;;;;;;;4978701;28;20065;-72
2022/06/01 11:50:30;;;;;;;0.70;0.57;;;22.30;85.30;;;;;;4985820;28;20037;-71
2022/06/01 11:52:56;;;;;;;3.40;1.20;;;;;;;;;;4987241;28;26357;-72
2022/06/01 11:55:22;;;;;;;1.20;0.90;;;;;;;;;;4985187;28;20511;-73
2022/06/01 11:58:04;;;;;;;1.63;1.05;;;22.70;81.90;;;;;;4982252;28;20411;-72
2022/06/01 12:00:41;;;;;;;2.00;0.98;;;22.90;82.20;;;;;;4982896;28;20030;-71
2022/06/01 12:03:19;;;;;;;2.42;1.15;;;23.00;82.60;;;;;;4987036;28;20027;-72
2022/06/01 12:06:03;;;;;;;1.73;0.88;;;22.80;81.30;;;;;;4982076;28;20120;-72
2022/06/01 12:08:32;;;;;;;1.00;0.90;;;;;;;;;;4985991;28;20185;-69
2022/06/01 12:11:03;;;;;;;1.33;0.95;;;;;;;;;;4983199;28;20397;-67
2022/06/01 12:13:50;;;;;;;1.50;0.60;;;;;;;;;;4984517;28;20427;-71
2022/06/01 12:16:27;;;;;;;1.65;0.85;;;;;;;;;;4984014;28;20058;-70
2022/06/01 12:18:58;;;;;;;3.13;0.75;;;;;;;;;;4983939;28;20034;-70
2022/06/01 12:21:30;;;;;;;1.95;0.95;;;;;;;;;;4982763;28;20061;-70
2022/06/01 12:29:33;;;;;;;1.63;0.70;;;;;;;;;;4986641;28;20129;-73
2022/06/01 12:32:00;;;;;;;1.05;0.77;;;;;;;;;;4984489;28;20421;-71
2022/06/01 12:34:27;;;;;;;1.93;1.37;;;;;;;;;;4983633;28;20400;-73
2022/06/01 12:36:53;;;;;;;;;;;;;;;;;;4985521;28;20262;-73
2022/06/01 12:39:26;;;;;;;1.20;1.10;;;22.00;82.20;;;;;;4986977;28;19960;-73
2022/06/01 12:41:58;;;;;;;1.50;0.95;;;21.90;83.50;;;;;;4987034;28;20092;-72
2022/06/01 12:44:24;;;;;;;4.70;2.17;;;;;;;;;;4990564;28;20037;-72
2022/06/01 12:46:51;;;;;;;1.55;1.05;;;;;;;;;;4987128;28;20642;-72
2022/06/01 12:49:50;;;;;;;1.48;1.00;;;22.00;87.00;;;;;;4989190;28;20121;-72
2022/06/01 12:52:18;;;;;;;1.65;1.17;;;;;;;;;;4973307;28;20057;-72
2022/06/01 12:54:44;;;;;;;2.05;1.60;;;;;;;;;;4989219;28;20034;-71
2022/06/01 12:57:12;;;;;;;2.50;1.42;;;;;;;;;;4989619;28;20073;-72
2022/06/01 12:59:41;;;;;;;7.03;1.77;;;;;;;;;;4989254;28;20083;-71
2022/06/01 13:02:09;;;;;;;5.85;2.88;;;;;;;;;;4989039;28;20803;-72
2022/06/01 13:04:36;;;;;;;4.82;3.42;;;;;;;;;;4988866;28;20038;-73
2022/06/01 13:07:02;;;;;;;3.15;1.90;;;;;;;;;;4986403;28;20042;-72
2022/06/01 13:09:30;;;;;;;5.10;2.92;;;;;;;;;;4988607;28;20169;-71
2022/06/01 13:12:00;;;;;;;3.63;2.20;;;;;;;;;;4989279;28;20566;-72
2022/06/01 13:14:27;;;;;;;10.63;2.58;;;;;;;;;;4990516;28;20046;-72
2022/06/01 13:16:58;;;;;;;9.27;3.17;;;;;;;;;;4990454;28;20027;-71
2022/06/01 13:19:25;;;;;;;5.82;2.05;;;;;;;;;;4988225;28;20382;-71
2022/06/01 13:22:01;;;;;;;4.95;2.70;;;;;;;;;;4969661;28;21857;-71
2022/06/01 13:24:28;;;;;;;5.25;2.72;;;;;;;;;;4988856;28;20069;-72
2022/06/01 13:26:57;;;;;;;8.75;3.30;;;;;;;;;;4988910;28;20625;-67
2022/06/01 13:29:29;;;;;;;3.65;2.30;;;23.00;89.00;;;;;;4989775;28;20033;-70
2022/06/01 13:32:00;;;;;;;6.97;2.85;;;23.20;83.90;;;;;;4990572;28;20124;-69
2022/06/01 13:34:47;;;;;;;5.88;3.65;;;;;;;;;;4985966;28;20088;-74
2022/06/01 13:37:15;;;;;;;7.50;2.75;;;23.10;84.30;;;;;;4986430;28;20169;-74
2022/06/01 13:39:44;;;;;;;4.40;2.38;;;;;;;;;;4989333;28;20029;-74
2022/06/01 13:42:21;;;;;;;5.93;2.50;;;;;;;;;;4985280;28;20054;-74
2022/06/01 13:44:54;;;;;;;7.50;2.55;;;;;;;;;;4986299;28;20030;-73
2022/06/01 13:47:30;;;;;;;4.97;3.38;;;23.10;84.00;;;;;;4989781;28;20788;-74
2022/06/01 13:50:02;;;;;;;5.93;2.70;;;;;;;;;;4989190;28;20061;-74
2022/06/01 13:52:29;;;;;;;8.60;2.65;;;;;;;;;;4987429;28;20053;-72
2022/06/01 13:55:17;;;;;;;7.40;2.85;;;;;;;;;;4986602;28;20045;-73
2022/06/01 13:57:50;;;;;;;7.68;3.15;;;;;;;;;;4985280;28;20038;-73
2022/06/01 14:00:30;;;;;;;4.35;2.28;;;23.10;82.50;;;;;;4985009;28;20058;-72
2022/06/01 14:03:03;;;;;;;6.88;2.92;;;;;;;;;;4985746;28;20031;-73
2022/06/01 14:05:34;;;;;;;7.55;2.17;;;;;;;;;;4989437;28;20507;-72
2022/06/01 14:08:06;;;;;;;5.15;1.88;;;;;;;;;;4985969;28;20022;-73
2022/06/01 14:10:33;;;;;;;6.60;2.53;;;;;;;;;;4985688;28;20122;-73
2022/06/01 14:12:59;;;;;;;4.28;3.13;;;;;;;;;;4985763;28;20526;-71
2022/06/01 14:15:25;;;;;;;6.28;3.33;;;23.00;80.50;;;;;;4984657;28;20487;-71
2022/06/01 14:17:51;;;;;;;5.55;2.85;;;;;;;;;;4985516;28;20058;-72
2022/06/01 14:20:17;;;;;;;6.25;3.28;;;;;;;;;;4988534;28;20492;-72
2022/06/01 14:22:44;;;;;;;5.13;2.35;;;;;;;;;;4984094;28;20474;-72
2022/06/01 14:30:39;;;;;;;10.80;3.13;;;;;;;;;;4983381;28;20045;-71
2022/06/01 14:33:08;;;;;;;6.03;2.83;;;;;;;;;;4985072;28;20050;-72
2022/06/01 14:35:34;;;;;;;7.07;3.30;;;22.50;95.50;;;;;;4987553;28;20121;-71
2022/06/01 14:38:00;;;;;;;5.78;3.20;;;;;;;;;;4985545;28;20121;-71
2022/06/01 14:40:26;;;;;;;6.35;2.47;;;;;;;;;;4984878;28;20037;-71
2022/06/01 14:42:52;;;;;;;8.20;3.40;;;;;;;;;;4984231;28;20061;-71
2022/06/01 14:45:18;;;;;;;6.05;3.97;;;;;;;;;;4984320;28;20035;-71
2022/06/01 14:47:44;;;;;;;5.00;2.97;;;;;;;;;;4986061;28;20037;-71
2022/06/01 14:50:10;;;;;;;8.27;3.38;;;;;;;;;;4987215;28;20655;-71
2022/06/01 14:52:38;;;;;;;19.02;5.45;;;;;;;;;;4984910;28;20096;-72
2022/06/01 14:55:03;;;;;;;;;;;;;;;;;;4988516;28;20033;-72
2022/06/01 14:57:29;;;;;;;22.90;7.55;;;;;;;;;;4984014;28;19993;-71
2022/06/01 14:59:55;;;;;;;11.05;3.95;;;;;;;;;;4984018;28;20030;-71
2022/06/01 15:02:21;;;;;;;19.33;4.20;;;;;;;;;;4988386;28;20034;-72
2022/06/01 15:04:49;;;;;;;8.02;3.35;;;;;;;;;;4973850;28;20027;-72
2022/06/01 15:07:14;;;;;;;5.85;3.53;;;22.50;95.60;;;;;;4985456;28;20037;-71